Time;durP1;ratioP1;P1;durP2;ratioP2;P2;SDS_P1;SDS_P2;PMS_P1;PMS_P2;Temp;Humidity;BMP_temperature;BMP_pressure;BME280_temperature;BME280_humidity;BME280_pressure;Samples;Min_cycle;Max_cycle;Signal;HPM_P1;HPM_P2
2021/08/07 00:01:17;;;;;;;4.40;3.20;;;15.20;99.90;;;;;;3540898;40;20558;-60
2021/08/07 00:03:42;;;;;;;4.90;3.45;;;15.30;99.90;;;;;;3541482;40;20075;-60
2021/08/07 00:06:07;;;;;;;7.20;3.35;;;15.20;99.90;;;;;;3541173;40;20045;-61
2021/08/07 00:08:33;;;;;;;6.25;3.47;;;15.20;99.90;;;;;;3540195;40;20046;-60
2021/08/07 00:10:58;;;;;;;6.80;3.40;;;15.20;99.90;;;;;;3547946;40;20034;-61
2021/08/07 00:13:24;;;;;;;8.35;3.70;;;15.10;99.90;;;;;;3548298;40;20117;-60
2021/08/07 00:15:49;;;;;;;5.55;3.17;;;15.10;99.90;;;;;;3541848;40;20027;-60
2021/08/07 00:18:15;;;;;;;8.18;3.20;;;15.00;99.90;;;;;;3540691;40;20027;-60
2021/08/07 00:20:40;;;;;;;5.13;3.33;;;15.10;99.90;;;;;;3540811;40;20042;-60
2021/08/07 00:23:06;;;;;;;8.90;3.42;;;15.10;99.90;;;;;;3541110;40;20041;-60
2021/08/07 00:25:31;;;;;;;5.18;3.30;;;15.00;99.90;;;;;;3541155;40;20392;-61
2021/08/07 00:27:57;;;;;;;6.55;3.47;;;15.10;99.90;;;;;;3540405;40;20034;-61
2021/08/07 00:30:23;;;;;;;5.80;3.58;;;15.10;99.90;;;;;;3540164;40;20140;-60
2021/08/07 00:32:48;;;;;;;6.43;4.00;;;15.10;99.90;;;;;;3541400;40;20045;-61
2021/08/07 00:35:16;;;;;;;5.10;3.65;;;15.00;99.90;;;;;;3540281;40;20412;-61
2021/08/07 00:37:42;;;;;;;6.30;3.40;;;15.00;99.90;;;;;;3540615;40;20101;-60
2021/08/07 00:40:10;;;;;;;7.32;3.40;;;15.00;99.90;;;;;;3548339;40;20803;-60
2021/08/07 00:42:36;;;;;;;6.45;4.18;;;15.00;99.90;;;;;;3547384;40;20325;-60
2021/08/07 00:45:10;;;;;;;5.57;3.72;;;15.10;99.90;;;;;;3547787;40;20120;-60
2021/08/07 00:47:38;;;;;;;6.47;3.53;;;14.90;99.90;;;;;;3539644;40;20042;-60
2021/08/07 00:50:05;;;;;;;6.15;4.07;;;15.00;99.90;;;;;;3539574;40;20030;-61
2021/08/07 00:52:31;;;;;;;6.20;3.67;;;15.00;99.90;;;;;;3548151;40;20115;-60
2021/08/07 00:55:03;;;;;;;5.90;4.28;;;15.00;99.90;;;;;;3539640;40;20733;-60
2021/08/07 00:57:30;;;;;;;7.18;4.10;;;15.00;99.90;;;;;;3539798;40;20038;-61
2021/08/07 00:59:56;;;;;;;7.13;3.70;;;15.00;99.90;;;;;;3539421;40;20353;-61
2021/08/07 01:02:22;;;;;;;6.55;4.35;;;15.20;99.90;;;;;;3547792;40;20439;-61
2021/08/07 01:04:52;;;;;;;7.38;4.10;;;15.10;99.90;;;;;;3547545;40;20043;-60
2021/08/07 01:07:18;;;;;;;6.53;4.15;;;15.00;99.90;;;;;;3548023;40;20339;-60
2021/08/07 01:09:44;;;;;;;5.97;3.55;;;15.00;99.90;;;;;;3539851;40;20031;-61
2021/08/07 01:12:09;;;;;;;8.07;3.90;;;15.00;99.90;;;;;;3540358;40;20035;-61
2021/08/07 01:14:42;;;;;;;5.22;4.00;;;14.90;99.90;;;;;;3547964;40;20040;-61
2021/08/07 01:17:08;;;;;;;8.18;4.47;;;14.90;99.90;;;;;;3547714;40;20030;-61
2021/08/07 01:19:34;;;;;;;6.55;4.22;;;14.90;99.90;;;;;;3541054;40;20045;-61
2021/08/07 01:22:00;;;;;;;9.48;4.68;;;15.60;99.90;;;;;;3539285;40;20732;-61
2021/08/07 01:24:31;;;;;;;9.00;4.28;;;14.90;99.90;;;;;;3539971;40;20122;-61
2021/08/07 01:27:02;;;;;;;5.80;4.20;;;14.90;99.90;;;;;;3547828;40;20030;-61
2021/08/07 01:29:27;;;;;;;6.40;4.45;;;14.90;99.90;;;;;;3548099;40;20525;-61
2021/08/07 01:31:57;;;;;;;9.43;4.13;;;14.90;99.90;;;;;;3548056;40;20031;-60
2021/08/07 01:34:39;;;;;;;8.85;5.03;;;14.90;99.90;;;;;;3531848;40;20050;-60
2021/08/07 01:37:06;;;;;;;13.38;5.78;;;14.90;99.90;;;;;;3539341;40;20042;-61
2021/08/07 01:40:01;;;;;;;8.70;4.55;;;14.90;99.90;;;;;;3538399;40;20152;-61
2021/08/07 01:42:38;;;;;;;8.75;4.57;;;14.90;99.90;;;;;;3546971;40;20049;-61
2021/08/07 01:45:11;;;;;;;7.45;4.68;;;14.90;99.90;;;;;;3539776;40;20047;-61
2021/08/07 01:47:38;;;;;;;8.07;5.10;;;14.90;99.90;;;;;;3540051;40;20045;-60
2021/08/07 01:50:04;;;;;;;6.65;4.43;;;14.90;99.90;;;;;;3547935;40;20030;-61
2021/08/07 01:52:31;;;;;;;7.30;3.90;;;14.90;99.90;;;;;;3547748;40;20633;-61
2021/08/07 01:55:02;;;;;;;5.68;4.18;;;14.90;99.90;;;;;;3547946;40;20069;-61
2021/08/07 01:57:30;;;;;;;6.22;4.50;;;14.90;99.90;;;;;;3546205;40;20761;-61
2021/08/07 01:59:56;;;;;;;5.22;4.53;;;14.90;99.90;;;;;;3539455;40;20034;-61
2021/08/07 02:02:22;;;;;;;7.82;4.60;;;14.80;99.90;;;;;;3539406;40;20124;-61
2021/08/07 02:04:51;;;;;;;7.88;4.47;;;14.90;99.90;;;;;;3539856;40;20046;-61
2021/08/07 02:07:24;;;;;;;12.52;4.70;;;14.80;99.90;;;;;;3548058;40;20031;-61
2021/08/07 02:09:56;;;;;;;8.02;4.88;;;14.80;99.90;;;;;;3547455;40;20031;-61
2021/08/07 02:12:23;;;;;;;10.57;5.00;;;14.80;99.90;;;;;;3539815;40;20035;-61
2021/08/07 02:14:52;;;;;;;13.38;4.75;;;14.80;99.90;;;;;;3540095;40;20040;-61
2021/08/07 02:17:19;;;;;;;8.23;4.70;;;14.80;99.90;;;;;;3538763;40;20132;-61
2021/08/07 02:19:45;;;;;;;11.23;5.70;;;14.80;99.90;;;;;;3537100;40;20034;-61
2021/08/07 02:22:11;;;;;;;11.25;5.20;;;14.80;99.90;;;;;;3547041;40;20070;-61
2021/08/07 02:24:40;;;;;;;11.73;5.22;;;14.90;99.90;;;;;;3538223;40;20035;-61
2021/08/07 02:27:08;;;;;;;14.98;5.90;;;14.90;99.90;;;;;;3538306;40;20034;-61
2021/08/07 02:29:34;;;;;;;12.73;5.82;;;15.10;99.90;;;;;;3547117;40;20030;-60
2021/08/07 02:32:07;;;;;;;11.15;5.20;;;15.00;99.90;;;;;;3538709;40;20066;-61
2021/08/07 02:34:33;;;;;;;13.43;5.72;;;15.00;99.90;;;;;;3539967;40;20563;-61
2021/08/07 02:37:02;;;;;;;10.23;5.53;;;15.00;99.90;;;;;;3539014;40;20388;-61
2021/08/07 02:39:32;;;;;;;9.82;5.30;;;15.00;99.90;;;;;;3546531;40;20046;-61
2021/08/07 02:41:58;;;;;;;7.45;4.90;;;15.10;99.90;;;;;;3546730;40;20130;-61
2021/08/07 02:44:28;;;;;;;10.50;4.97;;;15.10;99.90;;;;;;3538474;40;20695;-61
2021/08/07 02:46:53;;;;;;;10.18;5.43;;;15.00;99.90;;;;;;3540157;40;20038;-60
2021/08/07 02:49:19;;;;;;;10.20;5.20;;;15.00;99.90;;;;;;3538516;40;20053;-61
2021/08/07 02:51:49;;;;;;;6.72;5.10;;;15.10;99.90;;;;;;3537848;40;20063;-61
2021/08/07 02:54:14;;;;;;;10.55;5.25;;;15.10;99.90;;;;;;3538469;40;20151;-61
2021/08/07 02:56:40;;;;;;;11.32;5.65;;;15.10;99.90;;;;;;3539758;40;20563;-61
2021/08/07 02:59:06;;;;;;;7.35;5.22;;;15.10;99.90;;;;;;3539884;40;20293;-61
2021/08/07 03:01:34;;;;;;;12.98;5.00;;;15.10;99.90;;;;;;3547610;40;20038;-61
2021/08/07 03:04:00;;;;;;;11.05;4.93;;;15.10;99.90;;;;;;3548260;40;20593;-61
2021/08/07 03:06:26;;;;;;;11.20;4.63;;;15.20;99.90;;;;;;3548052;40;20030;-61
2021/08/07 03:08:54;;;;;;;7.40;5.30;;;15.10;99.90;;;;;;3548556;40;20768;-61
2021/08/07 03:11:19;;;;;;;10.10;5.38;;;15.10;99.90;;;;;;3539924;40;20124;-61
2021/08/07 03:13:48;;;;;;;13.60;5.60;;;15.10;99.90;;;;;;3547760;40;20398;-61
2021/08/07 03:16:16;;;;;;;11.77;5.93;;;15.10;99.90;;;;;;3548183;40;20039;-61
2021/08/07 03:18:44;;;;;;;13.82;5.25;;;15.00;99.90;;;;;;3536593;40;20054;-61
2021/08/07 03:21:11;;;;;;;7.30;5.15;;;15.10;99.90;;;;;;3540023;40;20070;-61
2021/08/07 03:23:45;;;;;;;8.67;4.83;;;15.10;99.90;;;;;;3540289;40;20032;-61
2021/08/07 03:26:11;;;;;;;11.52;5.05;;;15.00;99.90;;;;;;3541386;40;20042;-61
2021/08/07 03:28:38;;;;;;;9.98;4.70;;;15.00;99.90;;;;;;3548441;40;20066;-61
2021/08/07 03:31:03;;;;;;;10.70;5.30;;;14.90;99.90;;;;;;3539772;40;20630;-61
2021/08/07 03:33:35;;;;;;;8.98;5.07;;;15.00;99.90;;;;;;3547599;40;20050;-61
2021/08/07 03:36:02;;;;;;;11.60;5.32;;;14.90;99.90;;;;;;3539903;40;20058;-61
2021/08/07 03:38:28;;;;;;;9.70;5.05;;;14.90;99.90;;;;;;3540288;40;20026;-61
2021/08/07 03:40:55;;;;;;;8.68;4.63;;;14.90;99.90;;;;;;3546870;40;20590;-61
2021/08/07 03:43:21;;;;;;;10.07;5.60;;;14.90;99.90;;;;;;3548369;40;20039;-61
2021/08/07 03:45:46;;;;;;;7.72;5.18;;;14.90;99.90;;;;;;3539988;40;20058;-61
2021/08/07 03:48:12;;;;;;;7.45;4.90;;;14.90;99.90;;;;;;3539494;40;20427;-61
2021/08/07 03:50:45;;;;;;;8.80;5.05;;;14.80;99.90;;;;;;3539781;40;20043;-61
2021/08/07 03:53:15;;;;;;;10.70;5.43;;;14.80;99.90;;;;;;3539634;40;20035;-61
2021/08/07 03:55:43;;;;;;;10.45;5.68;;;14.80;99.90;;;;;;3536753;40;20046;-61
2021/08/07 03:58:09;;;;;;;16.55;5.30;;;14.80;99.90;;;;;;3541543;40;20031;-61
2021/08/07 04:00:43;;;;;;;9.13;5.40;;;14.90;99.90;;;;;;3540105;40;20514;-61
2021/08/07 04:03:18;;;;;;;12.85;6.18;;;14.90;99.90;;;;;;3548736;40;20054;-61
2021/08/07 04:05:44;;;;;;;8.35;5.05;;;14.90;99.90;;;;;;3547717;40;20324;-61
2021/08/07 04:08:10;;;;;;;8.65;5.00;;;14.90;99.90;;;;;;3537157;40;20027;-61
2021/08/07 04:10:39;;;;;;;11.95;5.47;;;14.90;99.90;;;;;;3540046;40;20058;-61
2021/08/07 04:13:05;;;;;;;13.00;5.32;;;14.90;99.90;;;;;;3539875;40;20027;-61
2021/08/07 04:15:31;;;;;;;11.05;5.03;;;14.90;99.90;;;;;;3538690;40;20487;-61
2021/08/07 04:17:57;;;;;;;7.63;5.20;;;14.80;99.90;;;;;;3538953;40;20034;-61
2021/08/07 04:20:22;;;;;;;8.35;4.82;;;14.80;99.90;;;;;;3538304;40;20045;-61
2021/08/07 04:22:48;;;;;;;7.68;4.55;;;14.80;99.90;;;;;;3531987;40;20101;-61
2021/08/07 04:25:13;;;;;;;10.63;3.85;;;14.70;99.90;;;;;;3548736;40;20037;-61
2021/08/07 04:27:40;;;;;;;9.40;4.05;;;14.70;99.90;;;;;;3547987;40;20049;-61
2021/08/07 04:30:06;;;;;;;7.15;3.92;;;14.60;99.90;;;;;;3541228;40;20684;-61
2021/08/07 04:32:32;;;;;;;12.27;4.53;;;14.60;99.90;;;;;;3548185;40;20069;-61
2021/08/07 04:35:04;;;;;;;6.85;3.95;;;14.60;99.90;;;;;;3535222;40;20042;-61
2021/08/07 04:37:30;;;;;;;7.18;4.63;;;14.50;99.90;;;;;;3539974;40;20038;-61
2021/08/07 04:39:56;;;;;;;8.77;4.57;;;14.50;99.90;;;;;;3547807;40;20023;-61
2021/08/07 04:42:24;;;;;;;9.15;4.55;;;14.50;99.90;;;;;;3537581;40;20079;-61
2021/08/07 04:44:49;;;;;;;8.77;4.43;;;14.50;99.90;;;;;;3540217;40;20312;-61
2021/08/07 04:47:15;;;;;;;6.50;4.63;;;14.50;99.90;;;;;;3538872;40;20125;-61
2021/08/07 04:49:40;;;;;;;7.95;5.22;;;14.50;99.90;;;;;;3541575;40;20038;-61
2021/08/07 04:52:06;;;;;;;8.10;5.43;;;14.50;99.90;;;;;;3538123;40;20436;-61
2021/08/07 04:54:34;;;;;;;14.75;6.32;;;14.50;99.90;;;;;;3548258;40;20499;-61
2021/08/07 04:57:00;;;;;;;15.52;6.47;;;14.60;99.90;;;;;;3540309;40;20081;-61
2021/08/07 04:59:26;;;;;;;7.68;5.20;;;14.70;99.90;;;;;;3538414;40;20408;-61
2021/08/07 05:01:52;;;;;;;9.65;5.90;;;14.70;99.90;;;;;;3532922;40;20082;-61
2021/08/07 05:04:18;;;;;;;12.73;5.82;;;14.70;99.90;;;;;;3541600;40;20026;-61
2021/08/07 05:06:46;;;;;;;9.43;5.72;;;14.80;99.90;;;;;;3536795;40;20122;-61
2021/08/07 05:09:13;;;;;;;9.88;5.82;;;14.90;99.90;;;;;;3538690;40;20078;-61
2021/08/07 05:11:57;;;;;;;10.60;6.03;;;14.90;99.90;;;;;;3538057;40;20136;-61
2021/08/07 05:14:23;;;;;;;9.02;5.30;;;14.90;99.90;;;;;;3540496;40;20059;-61
2021/08/07 05:16:49;;;;;;;9.70;5.55;;;15.00;99.90;;;;;;3534692;40;20814;-61
2021/08/07 05:19:15;;;;;;;13.80;5.95;;;15.10;99.90;;;;;;3536693;40;20041;-61
2021/08/07 05:21:43;;;;;;;7.32;5.38;;;15.10;99.90;;;;;;3539890;40;20077;-61
2021/08/07 05:24:09;;;;;;;8.07;5.55;;;15.20;99.90;;;;;;3539295;40;20027;-61
2021/08/07 05:26:35;;;;;;;14.90;6.38;;;15.30;99.90;;;;;;3547199;40;20116;-61
2021/08/07 05:29:01;;;;;;;10.20;6.25;;;15.40;99.90;;;;;;3538880;40;20152;-61
2021/08/07 05:31:27;;;;;;;9.55;6.65;;;15.60;99.90;;;;;;3535166;40;20786;-61
2021/08/07 05:33:53;;;;;;;10.80;6.50;;;15.70;99.90;;;;;;3547225;40;20333;-61
2021/08/07 05:36:19;;;;;;;15.07;6.47;;;15.80;99.90;;;;;;3534746;40;20053;-61
2021/08/07 05:38:45;;;;;;;16.48;7.22;;;16.00;99.90;;;;;;3545430;40;20022;-61
2021/08/07 05:41:10;;;;;;;15.93;7.13;;;16.10;99.90;;;;;;3547512;40;20755;-60
2021/08/07 05:43:39;;;;;;;10.48;7.30;;;16.20;99.90;;;;;;3537571;40;20054;-61
2021/08/07 05:46:05;;;;;;;10.27;6.70;;;16.30;99.90;;;;;;3540570;40;20120;-62
2021/08/07 05:48:30;;;;;;;12.05;7.18;;;16.30;99.90;;;;;;3539590;40;20057;-60
2021/08/07 05:50:56;;;;;;;12.27;6.75;;;16.40;99.90;;;;;;3540873;40;20030;-60
2021/08/07 05:53:21;;;;;;;10.77;6.22;;;16.50;99.90;;;;;;3547609;40;20521;-61
2021/08/07 05:55:48;;;;;;;9.93;5.95;;;16.60;99.90;;;;;;3537991;40;20038;-61
2021/08/07 05:58:13;;;;;;;12.07;5.70;;;16.60;99.90;;;;;;3548168;40;20038;-60
2021/08/07 06:00:43;;;;;;;7.78;5.22;;;16.70;99.90;;;;;;3547444;40;20037;-61
2021/08/07 06:03:08;;;;;;;7.20;4.68;;;16.70;99.90;;;;;;3539186;40;20042;-62
2021/08/07 06:05:38;;;;;;;8.65;4.25;;;16.70;99.90;;;;;;3545562;40;20038;-60
2021/08/07 06:08:06;;;;;;;7.32;4.68;;;16.80;99.90;;;;;;3540139;40;20030;-61
2021/08/07 06:10:32;;;;;;;7.07;3.60;;;16.90;99.90;;;;;;3547393;40;20038;-61
2021/08/07 06:12:58;;;;;;;7.07;5.30;;;16.90;99.90;;;;;;3535061;40;20046;-63
2021/08/07 06:15:24;;;;;;;7.45;4.43;;;17.00;99.90;;;;;;3538824;40;20045;-60
2021/08/07 06:17:50;;;;;;;8.55;4.18;;;17.00;99.90;;;;;;3530355;40;20053;-69
2021/08/07 06:20:16;;;;;;;6.63;3.45;;;17.20;99.90;;;;;;3539262;40;20039;-68
2021/08/07 06:22:48;;;;;;;10.38;4.55;;;17.20;99.90;;;;;;3538462;40;20293;-70
2021/08/07 06:25:14;;;;;;;4.03;3.38;;;17.30;99.90;;;;;;3537242;40;20047;-69
2021/08/07 06:27:42;;;;;;;6.43;3.38;;;17.40;99.90;;;;;;3540679;40;20034;-70
2021/08/07 06:30:07;;;;;;;9.68;4.47;;;17.30;99.90;;;;;;3537386;40;20308;-69
2021/08/07 06:32:33;;;;;;;9.77;4.60;;;17.30;99.90;;;;;;3537278;40;20027;-69
2021/08/07 06:34:59;;;;;;;8.05;3.35;;;17.30;99.90;;;;;;3532775;40;20598;-69
2021/08/07 06:37:24;;;;;;;5.47;3.50;;;17.50;99.90;;;;;;3542149;40;20035;-69
2021/08/07 06:39:50;;;;;;;8.73;3.15;;;17.50;99.90;;;;;;3541063;40;20112;-69
2021/08/07 06:42:15;;;;;;;7.78;3.30;;;17.60;99.90;;;;;;3541767;40;20416;-69
2021/08/07 06:44:53;;;;;;;9.63;3.47;;;17.70;99.90;;;;;;3547557;40;20148;-69
2021/08/07 06:47:20;;;;;;;6.50;3.63;;;17.70;99.90;;;;;;3539979;40;20112;-69
2021/08/07 06:49:46;;;;;;;10.77;4.53;;;17.70;99.90;;;;;;3541853;40;20046;-68
2021/08/07 06:52:11;;;;;;;11.98;5.70;;;17.80;99.90;;;;;;3540373;40;20035;-68
2021/08/07 06:54:37;;;;;;;6.20;3.42;;;17.90;99.90;;;;;;3540937;40;20077;-69
2021/08/07 06:57:02;;;;;;;7.32;3.22;;;18.00;99.90;;;;;;3549122;40;20059;-69
2021/08/07 06:59:28;;;;;;;17.15;7.97;;;18.00;99.90;;;;;;3540552;40;20791;-68
2021/08/07 07:01:54;;;;;;;4.22;2.63;;;17.90;99.90;;;;;;3540235;40;20034;-70
2021/08/07 07:04:19;;;;;;;6.10;2.85;;;18.00;99.90;;;;;;3538058;40;20060;-69
2021/08/07 07:06:45;;;;;;;9.00;3.75;;;18.00;99.90;;;;;;3549130;40;20038;-69
2021/08/07 07:09:11;;;;;;;6.28;2.80;;;18.20;99.90;;;;;;3549707;40;20038;-69
2021/08/07 07:11:37;;;;;;;4.20;2.75;;;18.30;99.90;;;;;;3541316;40;20034;-69
2021/08/07 07:14:03;;;;;;;6.63;2.88;;;18.30;99.90;;;;;;3537229;40;20086;-69
2021/08/07 07:16:30;;;;;;;4.72;2.13;;;18.40;99.90;;;;;;3540728;40;20421;-69
2021/08/07 07:18:56;;;;;;;8.25;2.67;;;18.50;99.90;;;;;;3540847;40;20057;-69
2021/08/07 07:21:21;;;;;;;4.65;2.67;;;18.60;99.90;;;;;;3535923;40;20667;-69
2021/08/07 07:23:49;;;;;;;4.97;2.22;;;18.60;99.90;;;;;;3537313;40;20042;-68
2021/08/07 07:26:15;;;;;;;5.95;2.22;;;18.70;99.90;;;;;;3536740;40;20046;-69
2021/08/07 07:28:40;;;;;;;4.10;2.40;;;18.60;99.90;;;;;;3538951;40;20047;-68
2021/08/07 07:31:06;;;;;;;6.20;2.40;;;18.70;99.90;;;;;;3540924;40;20069;-68
2021/08/07 07:33:31;;;;;;;3.95;2.05;;;18.90;99.90;;;;;;3540205;40;20854;-69
2021/08/07 07:35:57;;;;;;;6.00;2.17;;;18.80;99.90;;;;;;3542267;40;20041;-68
2021/08/07 07:38:23;;;;;;;5.40;2.28;;;18.90;99.90;;;;;;3540656;40;20078;-67
2021/08/07 07:40:49;;;;;;;6.38;2.45;;;19.00;99.90;;;;;;3540602;40;20097;-68
2021/08/07 07:43:15;;;;;;;2.97;1.80;;;19.10;99.90;;;;;;3536656;40;20491;-68
2021/08/07 07:45:41;;;;;;;4.95;2.20;;;19.10;99.90;;;;;;3539780;40;20704;-67
2021/08/07 07:48:07;;;;;;;4.03;2.30;;;19.10;99.90;;;;;;3540978;40;20116;-68
2021/08/07 07:50:32;;;;;;;3.92;2.00;;;19.40;99.90;;;;;;3547229;40;20042;-67
2021/08/07 07:52:59;;;;;;;3.72;1.83;;;19.30;99.90;;;;;;3547869;40;20067;-68
2021/08/07 07:55:26;;;;;;;7.75;3.00;;;19.40;99.90;;;;;;3548264;40;20042;-69
2021/08/07 07:57:52;;;;;;;4.95;2.22;;;19.50;99.90;;;;;;3540365;40;20037;-68
2021/08/07 08:00:19;;;;;;;7.97;1.98;;;19.70;99.90;;;;;;3539592;40;20034;-68
2021/08/07 08:02:45;;;;;;;4.47;1.88;;;19.70;99.90;;;;;;3540867;40;20747;-67
2021/08/07 08:05:10;;;;;;;6.00;3.55;;;19.80;99.90;;;;;;3548206;40;20046;-68
2021/08/07 08:07:36;;;;;;;3.30;1.98;;;20.00;99.90;;;;;;3547614;40;20405;-68
2021/08/07 08:10:02;;;;;;;19.23;9.23;;;20.00;99.90;;;;;;3538019;40;20038;-68
2021/08/07 08:12:27;;;;;;;3.22;1.92;;;20.20;99.90;;;;;;3547795;40;20038;-68
2021/08/07 08:14:53;;;;;;;4.78;1.75;;;20.60;99.90;;;;;;3538778;40;20060;-68
2021/08/07 08:17:18;;;;;;;3.80;2.15;;;20.90;99.90;;;;;;3538857;40;20041;-68
2021/08/07 08:19:44;;;;;;;2.70;1.58;;;21.30;99.90;;;;;;3547372;40;20422;-68
2021/08/07 08:22:10;;;;;;;4.60;1.65;;;21.70;99.90;;;;;;3548124;40;20042;-68
2021/08/07 08:24:36;;;;;;;4.95;1.92;;;22.10;99.90;;;;;;3547735;40;20042;-68
2021/08/07 08:27:02;;;;;;;7.40;2.22;;;22.00;99.90;;;;;;3538678;40;20359;-69
2021/08/07 08:29:28;;;;;;;1.73;1.30;;;22.10;99.90;;;;;;3540583;40;20086;-69
2021/08/07 08:31:53;;;;;;;3.38;1.42;;;21.90;99.90;;;;;;3540634;40;20031;-68
2021/08/07 08:34:20;;;;;;;4.32;1.48;;;22.10;99.90;;;;;;3539443;40;20054;-68
2021/08/07 08:36:45;;;;;;;4.10;1.42;;;22.00;99.90;;;;;;3540879;40;20022;-69
2021/08/07 08:39:11;;;;;;;5.07;1.70;;;22.10;99.90;;;;;;3540462;40;20038;-68
2021/08/07 08:41:36;;;;;;;5.70;3.50;;;22.40;99.90;;;;;;3548469;40;20030;-69
2021/08/07 08:44:02;;;;;;;4.88;2.05;;;22.80;99.90;;;;;;3547550;40;20061;-68
2021/08/07 08:46:27;;;;;;;2.42;1.33;;;23.10;99.90;;;;;;3548883;40;20038;-69
2021/08/07 08:48:53;;;;;;;2.05;1.15;;;23.00;99.90;;;;;;3548163;40;20054;-69
2021/08/07 08:51:18;;;;;;;4.53;2.08;;;22.80;99.90;;;;;;3538576;40;20034;-69
2021/08/07 08:53:44;;;;;;;9.00;4.75;;;22.70;99.90;;;;;;3539726;40;20121;-69
2021/08/07 08:56:10;;;;;;;3.75;1.60;;;23.10;99.90;;;;;;3539580;40;20066;-68
2021/08/07 08:58:36;;;;;;;5.15;1.38;;;23.50;99.90;;;;;;3541396;40;20045;-69
2021/08/07 09:01:02;;;;;;;3.00;1.65;;;23.60;99.90;;;;;;3539420;40;20121;-75
2021/08/07 09:03:27;;;;;;;1.98;1.40;;;23.70;99.90;;;;;;3540976;40;20043;-68
2021/08/07 09:05:53;;;;;;;4.28;2.17;;;23.70;99.90;;;;;;3547465;40;20407;-69
2021/08/07 09:08:19;;;;;;;3.03;1.33;;;23.60;99.90;;;;;;3540942;40;20026;-69
2021/08/07 09:10:44;;;;;;;3.58;1.30;;;23.60;99.90;;;;;;3546417;40;20031;-69
2021/08/07 09:13:10;;;;;;;4.45;1.20;;;23.60;99.90;;;;;;3547270;40;20045;-70
2021/08/07 09:15:36;;;;;;;4.95;1.27;;;23.30;99.90;;;;;;3539918;40;20088;-66
2021/08/07 09:18:25;;;;;;;5.20;1.65;;;23.50;99.90;;;;;;3539858;40;20120;-70
2021/08/07 09:20:59;;;;;;;4.72;1.33;;;23.90;99.90;;;;;;3538575;40;20082;-70
2021/08/07 09:23:25;;;;;;;2.55;1.05;;;24.30;99.90;;;;;;3539369;40;20049;-69
2021/08/07 09:25:50;;;;;;;4.93;1.40;;;24.60;99.90;;;;;;3541517;40;20034;-71
2021/08/07 09:28:16;;;;;;;1.98;1.10;;;24.40;98.90;;;;;;3539412;40;20050;-72
2021/08/07 09:30:41;;;;;;;4.45;1.10;;;24.20;99.90;;;;;;3540040;40;20083;-71
2021/08/07 09:33:10;;;;;;;1.73;1.23;;;23.90;99.50;;;;;;3548177;40;20058;-71
2021/08/07 09:35:38;;;;;;;1.80;1.15;;;24.20;99.90;;;;;;3539529;40;20843;-71
2021/08/07 09:38:04;;;;;;;4.22;1.75;;;24.10;99.20;;;;;;3540234;40;20328;-71
2021/08/07 09:40:30;;;;;;;1.10;0.90;;;24.60;99.90;;;;;;3541221;40;20041;-71
2021/08/07 09:42:55;;;;;;;3.45;1.00;;;24.80;99.90;;;;;;3537699;40;20324;-71
2021/08/07 09:45:21;;;;;;;1.60;1.00;;;24.90;99.60;;;;;;3540254;40;20026;-71
2021/08/07 09:47:47;;;;;;;4.88;2.95;;;24.90;99.20;;;;;;3540973;40;20038;-70
2021/08/07 09:50:12;;;;;;;1.38;1.10;;;25.10;98.30;;;;;;3541468;40;20060;-70
2021/08/07 09:52:38;;;;;;;1.77;0.90;;;25.00;97.90;;;;;;3548413;40;20030;-70
2021/08/07 09:55:05;;;;;;;4.07;1.40;;;25.20;98.30;;;;;;3540501;40;20027;-71
2021/08/07 09:57:32;;;;;;;2.97;0.80;;;25.20;98.60;;;;;;3535490;40;20038;-72
2021/08/07 10:00:01;;;;;;;2.50;1.10;;;25.20;97.80;;;;;;3536603;40;20140;-71
2021/08/07 10:02:30;;;;;;;3.05;1.08;;;24.70;97.50;;;;;;3540095;40;20429;-70
2021/08/07 10:04:57;;;;;;;9.55;4.95;;;24.10;98.10;;;;;;3537880;40;20050;-71
2021/08/07 10:07:23;;;;;;;7.55;3.17;;;24.30;99.70;;;;;;3539377;40;20034;-70
2021/08/07 10:09:55;;;;;;;2.50;0.90;;;24.60;97.80;;;;;;3540042;40;20030;-71
2021/08/07 10:12:20;;;;;;;2.47;0.85;;;24.60;96.80;;;;;;3547832;40;20045;-71
2021/08/07 10:15:02;;;;;;;1.17;0.82;;;24.40;97.30;;;;;;3539198;40;20026;-71
2021/08/07 10:17:28;;;;;;;5.13;1.10;;;24.30;97.50;;;;;;3539843;40;20120;-70
2021/08/07 10:19:54;;;;;;;7.30;1.00;;;24.70;97.80;;;;;;3539698;40;20034;-70
2021/08/07 10:22:22;;;;;;;1.42;0.77;;;25.00;97.90;;;;;;3537915;40;20045;-70
2021/08/07 10:24:51;;;;;;;2.70;1.10;;;25.20;96.70;;;;;;3548611;40;20035;-70
2021/08/07 10:27:20;;;;;;;2.70;0.77;;;25.60;96.40;;;;;;3547612;40;20116;-69
2021/08/07 10:29:49;;;;;;;4.07;1.00;;;25.40;95.90;;;;;;3539769;40;20133;-70
2021/08/07 10:32:14;;;;;;;1.67;1.23;;;25.50;96.40;;;;;;3547795;40;20503;-71
2021/08/07 10:34:40;;;;;;;2.25;1.10;;;25.50;95.50;;;;;;3537613;40;20628;-70
2021/08/07 10:37:05;;;;;;;2.08;1.00;;;25.50;95.70;;;;;;3539986;40;20096;-71
2021/08/07 10:39:32;;;;;;;3.88;1.30;;;25.40;95.40;;;;;;3539440;40;20077;-70
2021/08/07 10:41:59;;;;;;;3.80;0.95;;;25.20;96.30;;;;;;3547709;40;20054;-71
2021/08/07 10:44:25;;;;;;;4.15;1.85;;;25.20;96.40;;;;;;3538496;40;20487;-71
2021/08/07 10:46:50;;;;;;;1.55;1.02;;;24.90;95.50;;;;;;3547734;40;20113;-70
2021/08/07 10:49:16;;;;;;;2.05;1.30;;;24.90;96.10;;;;;;3539315;40;20093;-70
2021/08/07 10:51:43;;;;;;;5.65;2.78;;;25.40;96.00;;;;;;3540334;40;20049;-66
2021/08/07 10:54:08;;;;;;;5.13;1.40;;;25.80;95.00;;;;;;3540916;40;20022;-69
2021/08/07 10:56:34;;;;;;;1.75;0.90;;;25.90;93.40;;;;;;3540154;40;20041;-69
2021/08/07 10:58:59;;;;;;;3.22;1.17;;;25.60;93.60;;;;;;3540873;40;20698;-71
2021/08/07 11:01:25;;;;;;;1.73;0.85;;;25.60;94.20;;;;;;3540459;40;20176;-70
2021/08/07 11:03:51;;;;;;;0.98;0.70;;;25.50;94.10;;;;;;3540073;40;20054;-70
2021/08/07 11:06:16;;;;;;;1.85;0.80;;;25.70;94.50;;;;;;3540775;40;20023;-70
2021/08/07 11:08:41;;;;;;;5.00;0.90;;;25.80;93.00;;;;;;3540303;40;20043;-70
2021/08/07 11:11:07;;;;;;;1.25;0.80;;;26.00;94.20;;;;;;3540733;40;20506;-70
2021/08/07 11:13:32;;;;;;;2.83;1.27;;;25.90;95.00;;;;;;3540472;40;20050;-71
2021/08/07 11:15:58;;;;;;;2.10;1.00;;;26.00;93.40;;;;;;3542213;40;20058;-70
2021/08/07 11:18:23;;;;;;;0.70;0.60;;;26.00;92.20;;;;;;3541901;40;20038;-70
2021/08/07 11:20:49;;;;;;;4.00;0.80;;;26.20;93.60;;;;;;3540995;40;20861;-70
2021/08/07 11:23:14;;;;;;;5.28;2.05;;;26.50;92.20;;;;;;3542433;40;20098;-71
2021/08/07 11:25:40;;;;;;;6.40;3.75;;;26.70;91.10;;;;;;3542225;40;20065;-71
2021/08/07 11:28:06;;;;;;;3.50;1.33;;;26.70;91.00;;;;;;3542620;40;20057;-71
2021/08/07 11:30:31;;;;;;;1.40;0.80;;;26.90;91.40;;;;;;3542237;40;20062;-71
2021/08/07 11:33:17;;;;;;;3.63;1.02;;;27.00;90.00;;;;;;3542594;40;20054;-60
2021/08/07 11:35:45;;;;;;;6.18;0.80;;;27.00;90.20;;;;;;3542285;40;20044;-61
2021/08/07 11:38:13;;;;;;;2.92;0.77;;;26.80;90.20;;;;;;3542486;40;20053;-61
2021/08/07 11:40:38;;;;;;;2.97;0.85;;;26.60;90.80;;;;;;3540853;40;20014;-61
2021/08/07 11:43:04;;;;;;;4.38;0.70;;;26.60;89.80;;;;;;3541756;40;20034;-61
2021/08/07 11:45:29;;;;;;;1.83;0.70;;;26.70;90.00;;;;;;3542012;40;20715;-60
2021/08/07 11:47:55;;;;;;;3.60;0.80;;;26.70;90.20;;;;;;3541760;40;20050;-60
2021/08/07 11:50:21;;;;;;;2.58;0.70;;;26.50;89.70;;;;;;3541501;40;20089;-61
2021/08/07 11:52:46;;;;;;;2.30;0.90;;;26.50;87.80;;;;;;3541560;40;20045;-60
2021/08/07 11:55:11;;;;;;;0.85;0.65;;;26.30;88.80;;;;;;3541149;40;20039;-60
2021/08/07 11:57:37;;;;;;;1.70;0.80;;;26.20;88.70;;;;;;3542007;40;20356;-60
2021/08/07 12:00:02;;;;;;;1.65;0.85;;;26.10;90.00;;;;;;3541275;40;20030;-60
2021/08/07 12:02:37;;;;;;;1.90;0.90;;;25.90;90.70;;;;;;3540710;40;20046;-60
2021/08/07 12:05:02;;;;;;;1.95;0.70;;;26.10;89.90;;;;;;3541726;40;20034;-60
2021/08/07 12:07:28;;;;;;;0.57;0.50;;;26.20;90.80;;;;;;3541481;40;20043;-60
2021/08/07 12:09:53;;;;;;;1.77;0.70;;;26.20;86.90;;;;;;3541253;40;20050;-60
2021/08/07 12:12:19;;;;;;;0.88;0.65;;;26.10;87.80;;;;;;3541307;40;20035;-60
2021/08/07 12:14:44;;;;;;;0.75;0.70;;;26.30;90.60;;;;;;3542048;40;20022;-60
2021/08/07 12:17:10;;;;;;;1.67;0.68;;;26.50;90.10;;;;;;3541143;40;20038;-60
2021/08/07 12:19:35;;;;;;;2.17;0.75;;;26.70;89.80;;;;;;3541492;40;20034;-60
2021/08/07 12:22:01;;;;;;;1.70;0.70;;;27.00;89.30;;;;;;3541572;40;20491;-60
2021/08/07 12:24:26;;;;;;;6.07;0.95;;;26.90;90.20;;;;;;3541168;40;20465;-61
2021/08/07 12:26:52;;;;;;;2.30;0.70;;;27.20;90.10;;;;;;3547902;40;20035;-60
2021/08/07 12:29:17;;;;;;;2.72;0.63;;;27.20;89.00;;;;;;3541387;40;20506;-60
2021/08/07 12:31:43;;;;;;;1.77;0.73;;;27.30;87.40;;;;;;3541261;40;20046;-60
2021/08/07 12:34:08;;;;;;;2.63;0.70;;;27.50;89.70;;;;;;3542144;40;20034;-60
2021/08/07 12:36:34;;;;;;;3.83;0.80;;;27.50;85.90;;;;;;3541453;40;20054;-60
2021/08/07 12:39:00;;;;;;;0.95;0.70;;;27.50;85.30;;;;;;3540633;40;20102;-60
2021/08/07 12:41:25;;;;;;;1.13;0.60;;;27.50;90.30;;;;;;3541166;40;20038;-60
2021/08/07 12:43:50;;;;;;;2.15;0.77;;;27.50;84.40;;;;;;3542372;40;20038;-60